Aviation Digital Data Service (ADDS)

Output produced by METARs form (0016 UTC 21 January 2019)
found at http://www.aviationweather.gov/metar/data/
 
Forecast for: AYPY (PORT MORESBY INT, PG)
Text: TAF AYPY 202230Z 2100/2124 34007KT 9999 SCT018 SCT140
Forecast period: 0000 to 0400 UTC 21 January 2019
Forecast type: FROM: standard forecast or significant change
Winds: from the NNW (340 degrees) at 8 MPH (7 knots; 3.6 m/s)
Visibility: 6 or more miles 10+ km)
Ceiling: at least 12,000 feet AGL
Clouds: scattered clouds at 1800 feet AGL
scattered clouds at 14000 feet AGL
Weather: no significant weather forecast for this period
Text: FM210400 20008KT 9999 -SHRA SCT016 BKN120
Forecast period: 0400 UTC 21 January 2019 to 0000 UTC 22 January 2019
Forecast type: FROM: standard forecast or significant change
Winds: from the SSW (200 degrees) at 9 MPH (8 knots; 4.1 m/s)
Visibility: 6 or more miles 10+ km)
Ceiling: 12000 feet AGL
Clouds: scattered clouds at 1600 feet AGL
broken clouds at 12000 feet AGL
Weather: -SHRA  (light rain showers)